sensor_id;sensor_type;location;lat;lon;timestamp;P1;durP1;ratioP1;P2;durP2;ratioP2
5718;SDS011;2884;47.734;9.244;2024-02-14T00:00:34;4.73;;;2.40;;
5718;SDS011;2884;47.734;9.244;2024-02-14T00:02:59;4.67;;;2.33;;
5718;SDS011;2884;47.734;9.244;2024-02-14T00:05:25;4.17;;;2.63;;
5718;SDS011;2884;47.734;9.244;2024-02-14T00:07:51;7.65;;;2.63;;
5718;SDS011;2884;47.734;9.244;2024-02-14T00:10:17;4.43;;;2.30;;
5718;SDS011;2884;47.734;9.244;2024-02-14T00:12:42;5.77;;;2.33;;
5718;SDS011;2884;47.734;9.244;2024-02-14T00:15:08;3.93;;;2.43;;
5718;SDS011;2884;47.734;9.244;2024-02-14T00:17:34;7.00;;;2.25;;
5718;SDS011;2884;47.734;9.244;2024-02-14T00:20:00;5.15;;;2.15;;
5718;SDS011;2884;47.734;9.244;2024-02-14T00:22:26;4.80;;;2.35;;
5718;SDS011;2884;47.734;9.244;2024-02-14T00:24:52;6.10;;;2.37;;
5718;SDS011;2884;47.734;9.244;2024-02-14T00:27:18;2.40;;;2.07;;
5718;SDS011;2884;47.734;9.244;2024-02-14T00:29:43;6.70;;;3.13;;
5718;SDS011;2884;47.734;9.244;2024-02-14T00:32:11;3.63;;;2.90;;
5718;SDS011;2884;47.734;9.244;2024-02-14T00:34:37;4.85;;;3.45;;
5718;SDS011;2884;47.734;9.244;2024-02-14T00:37:03;7.17;;;3.57;;
5718;SDS011;2884;47.734;9.244;2024-02-14T00:39:28;6.80;;;3.30;;
5718;SDS011;2884;47.734;9.244;2024-02-14T00:41:54;5.93;;;3.10;;
5718;SDS011;2884;47.734;9.244;2024-02-14T00:44:21;5.68;;;3.63;;
5718;SDS011;2884;47.734;9.244;2024-02-14T00:46:46;4.50;;;3.33;;
5718;SDS011;2884;47.734;9.244;2024-02-14T00:49:13;4.30;;;3.17;;
5718;SDS011;2884;47.734;9.244;2024-02-14T00:51:39;6.83;;;3.43;;
5718;SDS011;2884;47.734;9.244;2024-02-14T00:54:11;7.00;;;2.80;;
5718;SDS011;2884;47.734;9.244;2024-02-14T00:56:36;5.00;;;3.25;;
5718;SDS011;2884;47.734;9.244;2024-02-14T00:59:02;6.30;;;3.10;;
5718;SDS011;2884;47.734;9.244;2024-02-14T01:01:27;6.10;;;3.80;;
5718;SDS011;2884;47.734;9.244;2024-02-14T01:03:53;4.77;;;3.33;;
5718;SDS011;2884;47.734;9.244;2024-02-14T01:06:19;7.13;;;3.70;;
5718;SDS011;2884;47.734;9.244;2024-02-14T01:08:45;6.30;;;3.50;;
5718;SDS011;2884;47.734;9.244;2024-02-14T01:11:10;7.90;;;3.60;;
5718;SDS011;2884;47.734;9.244;2024-02-14T01:13:37;7.10;;;3.20;;
5718;SDS011;2884;47.734;9.244;2024-02-14T01:16:03;6.68;;;3.40;;
5718;SDS011;2884;47.734;9.244;2024-02-14T01:18:33;7.13;;;3.08;;
5718;SDS011;2884;47.734;9.244;2024-02-14T01:20:58;5.87;;;3.17;;
5718;SDS011;2884;47.734;9.244;2024-02-14T01:23:25;5.43;;;3.33;;
5718;SDS011;2884;47.734;9.244;2024-02-14T01:25:51;4.70;;;2.80;;
5718;SDS011;2884;47.734;9.244;2024-02-14T01:28:19;8.88;;;4.45;;
5718;SDS011;2884;47.734;9.244;2024-02-14T01:30:45;11.67;;;3.50;;
5718;SDS011;2884;47.734;9.244;2024-02-14T01:33:11;6.43;;;3.10;;
5718;SDS011;2884;47.734;9.244;2024-02-14T01:35:36;6.00;;;3.30;;
5718;SDS011;2884;47.734;9.244;2024-02-14T01:38:01;3.60;;;2.23;;
5718;SDS011;2884;47.734;9.244;2024-02-14T01:40:28;3.22;;;2.35;;
5718;SDS011;2884;47.734;9.244;2024-02-14T01:42:54;15.20;;;2.90;;
5718;SDS011;2884;47.734;9.244;2024-02-14T01:45:20;3.08;;;2.35;;
5718;SDS011;2884;47.734;9.244;2024-02-14T01:47:46;5.57;;;2.90;;
5718;SDS011;2884;47.734;9.244;2024-02-14T01:50:13;4.50;;;2.70;;
5718;SDS011;2884;47.734;9.244;2024-02-14T01:52:38;7.20;;;3.13;;
5718;SDS011;2884;47.734;9.244;2024-02-14T01:55:05;6.20;;;3.10;;
5718;SDS011;2884;47.734;9.244;2024-02-14T01:57:32;10.88;;;3.58;;
5718;SDS011;2884;47.734;9.244;2024-02-14T01:59:58;6.53;;;2.88;;
5718;SDS011;2884;47.734;9.244;2024-02-14T02:02:26;6.50;;;3.60;;
5718;SDS011;2884;47.734;9.244;2024-02-14T02:04:51;4.40;;;3.15;;
5718;SDS011;2884;47.734;9.244;2024-02-14T02:07:20;4.70;;;3.10;;
5718;SDS011;2884;47.734;9.244;2024-02-14T02:09:46;6.55;;;3.50;;
5718;SDS011;2884;47.734;9.244;2024-02-14T02:12:11;3.60;;;3.30;;
5718;SDS011;2884;47.734;9.244;2024-02-14T02:14:37;3.50;;;3.20;;
5718;SDS011;2884;47.734;9.244;2024-02-14T02:17:03;3.73;;;2.33;;
5718;SDS011;2884;47.734;9.244;2024-02-14T02:19:33;4.70;;;2.85;;
5718;SDS011;2884;47.734;9.244;2024-02-14T02:21:59;5.45;;;2.78;;
5718;SDS011;2884;47.734;9.244;2024-02-14T02:24:25;2.47;;;2.28;;
5718;SDS011;2884;47.734;9.244;2024-02-14T02:26:57;7.68;;;3.42;;
5718;SDS011;2884;47.734;9.244;2024-02-14T02:29:22;5.15;;;2.83;;
5718;SDS011;2884;47.734;9.244;2024-02-14T02:31:48;6.53;;;3.63;;
5718;SDS011;2884;47.734;9.244;2024-02-14T02:34:13;6.30;;;2.77;;
5718;SDS011;2884;47.734;9.244;2024-02-14T02:36:40;5.40;;;2.87;;
5718;SDS011;2884;47.734;9.244;2024-02-14T02:39:06;9.45;;;3.33;;
5718;SDS011;2884;47.734;9.244;2024-02-14T02:41:34;11.07;;;2.80;;
5718;SDS011;2884;47.734;9.244;2024-02-14T02:44:00;7.07;;;2.87;;
5718;SDS011;2884;47.734;9.244;2024-02-14T02:46:27;5.15;;;2.92;;
5718;SDS011;2884;47.734;9.244;2024-02-14T02:48:52;9.07;;;3.30;;
5718;SDS011;2884;47.734;9.244;2024-02-14T02:51:22;6.45;;;2.60;;
5718;SDS011;2884;47.734;9.244;2024-02-14T02:53:47;6.40;;;3.03;;
5718;SDS011;2884;47.734;9.244;2024-02-14T02:56:13;9.13;;;2.70;;
5718;SDS011;2884;47.734;9.244;2024-02-14T02:58:40;7.03;;;3.35;;
5718;SDS011;2884;47.734;9.244;2024-02-14T03:01:08;10.27;;;4.73;;
5718;SDS011;2884;47.734;9.244;2024-02-14T03:03:34;3.20;;;2.65;;
5718;SDS011;2884;47.734;9.244;2024-02-14T03:06:01;4.10;;;3.25;;
5718;SDS011;2884;47.734;9.244;2024-02-14T03:08:31;5.45;;;2.65;;
5718;SDS011;2884;47.734;9.244;2024-02-14T03:11:05;3.15;;;2.72;;
5718;SDS011;2884;47.734;9.244;2024-02-14T03:13:31;7.25;;;2.90;;
5718;SDS011;2884;47.734;9.244;2024-02-14T03:15:57;6.10;;;3.00;;
5718;SDS011;2884;47.734;9.244;2024-02-14T03:18:26;4.05;;;3.22;;
5718;SDS011;2884;47.734;9.244;2024-02-14T03:20:51;6.45;;;3.20;;
5718;SDS011;2884;47.734;9.244;2024-02-14T03:23:19;6.00;;;2.80;;
5718;SDS011;2884;47.734;9.244;2024-02-14T03:25:44;3.80;;;3.23;;
5718;SDS011;2884;47.734;9.244;2024-02-14T03:28:10;4.93;;;3.30;;
5718;SDS011;2884;47.734;9.244;2024-02-14T03:30:38;4.07;;;3.42;;
5718;SDS011;2884;47.734;9.244;2024-02-14T03:33:04;3.10;;;2.90;;
5718;SDS011;2884;47.734;9.244;2024-02-14T03:35:30;7.82;;;2.97;;
5718;SDS011;2884;47.734;9.244;2024-02-14T03:37:56;6.50;;;2.70;;
5718;SDS011;2884;47.734;9.244;2024-02-14T03:40:21;3.60;;;3.30;;
5718;SDS011;2884;47.734;9.244;2024-02-14T03:42:47;7.28;;;3.75;;
5718;SDS011;2884;47.734;9.244;2024-02-14T03:45:13;8.90;;;2.97;;
5718;SDS011;2884;47.734;9.244;2024-02-14T03:47:39;3.87;;;3.30;;
5718;SDS011;2884;47.734;9.244;2024-02-14T03:50:05;5.63;;;3.30;;
5718;SDS011;2884;47.734;9.244;2024-02-14T03:52:32;5.82;;;2.83;;
5718;SDS011;2884;47.734;9.244;2024-02-14T03:54:58;3.77;;;3.10;;
5718;SDS011;2884;47.734;9.244;2024-02-14T03:57:25;4.60;;;2.97;;
5718;SDS011;2884;47.734;9.244;2024-02-14T03:59:53;5.45;;;3.40;;
5718;SDS011;2884;47.734;9.244;2024-02-14T04:02:20;5.43;;;3.20;;
5718;SDS011;2884;47.734;9.244;2024-02-14T04:04:46;8.10;;;3.50;;
5718;SDS011;2884;47.734;9.244;2024-02-14T04:07:12;4.73;;;3.03;;
5718;SDS011;2884;47.734;9.244;2024-02-14T04:09:37;4.10;;;2.87;;
5718;SDS011;2884;47.734;9.244;2024-02-14T04:12:03;6.47;;;3.30;;
5718;SDS011;2884;47.734;9.244;2024-02-14T04:14:30;4.13;;;3.13;;
5718;SDS011;2884;47.734;9.244;2024-02-14T04:16:56;4.00;;;3.17;;
5718;SDS011;2884;47.734;9.244;2024-02-14T04:19:22;6.00;;;3.07;;
5718;SDS011;2884;47.734;9.244;2024-02-14T04:21:47;4.70;;;3.30;;
5718;SDS011;2884;47.734;9.244;2024-02-14T04:24:13;4.00;;;2.58;;
5718;SDS011;2884;47.734;9.244;2024-02-14T04:26:39;5.03;;;3.17;;
5718;SDS011;2884;47.734;9.244;2024-02-14T04:29:05;3.50;;;3.00;;
5718;SDS011;2884;47.734;9.244;2024-02-14T04:31:30;3.97;;;2.70;;
5718;SDS011;2884;47.734;9.244;2024-02-14T04:33:57;5.10;;;2.95;;
5718;SDS011;2884;47.734;9.244;2024-02-14T04:36:23;4.20;;;3.28;;
5718;SDS011;2884;47.734;9.244;2024-02-14T04:38:49;3.33;;;2.33;;
5718;SDS011;2884;47.734;9.244;2024-02-14T04:41:15;4.30;;;2.80;;
5718;SDS011;2884;47.734;9.244;2024-02-14T04:43:40;4.23;;;2.63;;
5718;SDS011;2884;47.734;9.244;2024-02-14T04:46:06;7.43;;;2.83;;
5718;SDS011;2884;47.734;9.244;2024-02-14T04:48:33;2.78;;;2.58;;
5718;SDS011;2884;47.734;9.244;2024-02-14T04:50:58;2.70;;;2.50;;
5718;SDS011;2884;47.734;9.244;2024-02-14T04:53:24;3.73;;;2.80;;
5718;SDS011;2884;47.734;9.244;2024-02-14T04:55:50;4.70;;;3.70;;
5718;SDS011;2884;47.734;9.244;2024-02-14T04:58:15;8.90;;;3.27;;
5718;SDS011;2884;47.734;9.244;2024-02-14T05:00:41;7.17;;;3.13;;
5718;SDS011;2884;47.734;9.244;2024-02-14T05:03:07;6.38;;;3.85;;
5718;SDS011;2884;47.734;9.244;2024-02-14T05:05:35;4.93;;;3.25;;
5718;SDS011;2884;47.734;9.244;2024-02-14T05:08:04;4.63;;;3.33;;
5718;SDS011;2884;47.734;9.244;2024-02-14T05:10:30;2.90;;;2.60;;
5718;SDS011;2884;47.734;9.244;2024-02-14T05:12:56;4.57;;;3.53;;
5718;SDS011;2884;47.734;9.244;2024-02-14T05:15:22;6.27;;;2.73;;
5718;SDS011;2884;47.734;9.244;2024-02-14T05:17:47;6.50;;;3.57;;
5718;SDS011;2884;47.734;9.244;2024-02-14T05:20:15;4.50;;;3.30;;
5718;SDS011;2884;47.734;9.244;2024-02-14T05:22:43;6.85;;;3.50;;
5718;SDS011;2884;47.734;9.244;2024-02-14T05:25:09;4.83;;;3.53;;
5718;SDS011;2884;47.734;9.244;2024-02-14T05:27:35;5.20;;;4.30;;
5718;SDS011;2884;47.734;9.244;2024-02-14T05:30:05;4.78;;;2.90;;
5718;SDS011;2884;47.734;9.244;2024-02-14T05:32:31;7.63;;;3.38;;
5718;SDS011;2884;47.734;9.244;2024-02-14T05:34:57;6.07;;;3.05;;
5718;SDS011;2884;47.734;9.244;2024-02-14T05:37:23;8.13;;;3.30;;
5718;SDS011;2884;47.734;9.244;2024-02-14T05:39:48;5.13;;;2.93;;
5718;SDS011;2884;47.734;9.244;2024-02-14T05:42:17;5.05;;;2.92;;
5718;SDS011;2884;47.734;9.244;2024-02-14T05:44:42;5.30;;;3.20;;
5718;SDS011;2884;47.734;9.244;2024-02-14T05:47:12;5.85;;;3.67;;
5718;SDS011;2884;47.734;9.244;2024-02-14T05:49:38;4.72;;;3.88;;
5718;SDS011;2884;47.734;9.244;2024-02-14T05:52:06;4.95;;;3.20;;
5718;SDS011;2884;47.734;9.244;2024-02-14T05:54:33;4.22;;;3.38;;
5718;SDS011;2884;47.734;9.244;2024-02-14T05:57:02;8.13;;;3.75;;
5718;SDS011;2884;47.734;9.244;2024-02-14T05:59:28;6.43;;;3.80;;
5718;SDS011;2884;47.734;9.244;2024-02-14T06:01:53;3.53;;;3.23;;
5718;SDS011;2884;47.734;9.244;2024-02-14T06:04:19;6.70;;;3.80;;
5718;SDS011;2884;47.734;9.244;2024-02-14T06:06:44;6.20;;;3.80;;
5718;SDS011;2884;47.734;9.244;2024-02-14T06:09:10;4.90;;;3.43;;
5718;SDS011;2884;47.734;9.244;2024-02-14T06:11:37;5.78;;;3.55;;
5718;SDS011;2884;47.734;9.244;2024-02-14T06:14:06;7.38;;;4.18;;
5718;SDS011;2884;47.734;9.244;2024-02-14T06:16:32;8.80;;;4.87;;
5718;SDS011;2884;47.734;9.244;2024-02-14T06:18:58;6.15;;;4.45;;
5718;SDS011;2884;47.734;9.244;2024-02-14T06:21:24;8.40;;;4.40;;
5718;SDS011;2884;47.734;9.244;2024-02-14T06:23:50;5.93;;;4.10;;
5718;SDS011;2884;47.734;9.244;2024-02-14T06:26:16;4.30;;;3.90;;
5718;SDS011;2884;47.734;9.244;2024-02-14T06:28:43;8.77;;;4.03;;
5718;SDS011;2884;47.734;9.244;2024-02-14T06:31:09;5.75;;;3.75;;
5718;SDS011;2884;47.734;9.244;2024-02-14T06:33:35;4.83;;;3.37;;
5718;SDS011;2884;47.734;9.244;2024-02-14T06:36:01;5.03;;;3.63;;
5718;SDS011;2884;47.734;9.244;2024-02-14T06:38:26;6.50;;;3.80;;
5718;SDS011;2884;47.734;9.244;2024-02-14T06:40:52;4.70;;;3.63;;
5718;SDS011;2884;47.734;9.244;2024-02-14T06:43:17;6.80;;;3.97;;
5718;SDS011;2884;47.734;9.244;2024-02-14T06:45:43;8.20;;;3.83;;
5718;SDS011;2884;47.734;9.244;2024-02-14T06:48:09;7.15;;;3.42;;
5718;SDS011;2884;47.734;9.244;2024-02-14T06:50:35;9.27;;;3.93;;
5718;SDS011;2884;47.734;9.244;2024-02-14T06:53:00;9.13;;;3.90;;
5718;SDS011;2884;47.734;9.244;2024-02-14T06:55:26;5.50;;;3.50;;
5718;SDS011;2884;47.734;9.244;2024-02-14T06:57:52;4.10;;;3.60;;
5718;SDS011;2884;47.734;9.244;2024-02-14T07:00:18;6.10;;;3.77;;
5718;SDS011;2884;47.734;9.244;2024-02-14T07:02:44;10.15;;;4.18;;
5718;SDS011;2884;47.734;9.244;2024-02-14T07:05:12;5.45;;;3.22;;
5718;SDS011;2884;47.734;9.244;2024-02-14T07:07:39;5.47;;;3.78;;
5718;SDS011;2884;47.734;9.244;2024-02-14T07:10:06;6.00;;;3.60;;
5718;SDS011;2884;47.734;9.244;2024-02-14T07:12:32;10.30;;;3.60;;
5718;SDS011;2884;47.734;9.244;2024-02-14T07:14:57;7.93;;;3.50;;
5718;SDS011;2884;47.734;9.244;2024-02-14T07:17:23;9.77;;;3.80;;
5718;SDS011;2884;47.734;9.244;2024-02-14T07:19:48;7.17;;;3.77;;
5718;SDS011;2884;47.734;9.244;2024-02-14T07:22:15;6.85;;;3.80;;
5718;SDS011;2884;47.734;9.244;2024-02-14T07:24:44;8.05;;;3.60;;
5718;SDS011;2884;47.734;9.244;2024-02-14T07:27:11;6.15;;;4.00;;
5718;SDS011;2884;47.734;9.244;2024-02-14T07:29:40;5.33;;;3.50;;
5718;SDS011;2884;47.734;9.244;2024-02-14T07:32:06;4.80;;;3.90;;
5718;SDS011;2884;47.734;9.244;2024-02-14T07:34:32;7.17;;;4.00;;
5718;SDS011;2884;47.734;9.244;2024-02-14T07:36:58;7.47;;;4.33;;
5718;SDS011;2884;47.734;9.244;2024-02-14T07:39:23;8.43;;;3.97;;
5718;SDS011;2884;47.734;9.244;2024-02-14T07:41:50;7.57;;;4.00;;
5718;SDS011;2884;47.734;9.244;2024-02-14T07:44:16;12.93;;;4.00;;
5718;SDS011;2884;47.734;9.244;2024-02-14T07:46:42;7.40;;;4.70;;
5718;SDS011;2884;47.734;9.244;2024-02-14T07:49:07;6.23;;;4.27;;
5718;SDS011;2884;47.734;9.244;2024-02-14T07:51:34;6.73;;;4.10;;
5718;SDS011;2884;47.734;9.244;2024-02-14T07:54:04;4.63;;;4.10;;
5718;SDS011;2884;47.734;9.244;2024-02-14T07:56:30;4.20;;;3.73;;
5718;SDS011;2884;47.734;9.244;2024-02-14T07:58:56;8.07;;;4.47;;
5718;SDS011;2884;47.734;9.244;2024-02-14T08:01:22;7.57;;;4.63;;
5718;SDS011;2884;47.734;9.244;2024-02-14T08:03:48;9.87;;;3.87;;
5718;SDS011;2884;47.734;9.244;2024-02-14T08:06:13;5.50;;;4.23;;
5718;SDS011;2884;47.734;9.244;2024-02-14T08:08:39;5.40;;;3.97;;
5718;SDS011;2884;47.734;9.244;2024-02-14T08:11:05;5.80;;;3.60;;
5718;SDS011;2884;47.734;9.244;2024-02-14T08:13:31;7.90;;;4.10;;
5718;SDS011;2884;47.734;9.244;2024-02-14T08:15:57;5.50;;;3.00;;
5718;SDS011;2884;47.734;9.244;2024-02-14T08:18:23;7.97;;;3.80;;
5718;SDS011;2884;47.734;9.244;2024-02-14T08:20:49;4.57;;;3.33;;
5718;SDS011;2884;47.734;9.244;2024-02-14T08:23:15;14.53;;;3.73;;
5718;SDS011;2884;47.734;9.244;2024-02-14T08:25:42;7.17;;;4.10;;
5718;SDS011;2884;47.734;9.244;2024-02-14T08:28:07;5.77;;;4.50;;
5718;SDS011;2884;47.734;9.244;2024-02-14T08:30:33;7.07;;;3.30;;
5718;SDS011;2884;47.734;9.244;2024-02-14T08:32:59;5.53;;;3.60;;
5718;SDS011;2884;47.734;9.244;2024-02-14T08:35:24;6.30;;;4.07;;
5718;SDS011;2884;47.734;9.244;2024-02-14T08:37:50;8.10;;;4.10;;
5718;SDS011;2884;47.734;9.244;2024-02-14T08:40:15;6.50;;;2.90;;
5718;SDS011;2884;47.734;9.244;2024-02-14T08:42:41;9.97;;;3.07;;
5718;SDS011;2884;47.734;9.244;2024-02-14T08:45:07;6.87;;;3.27;;
5718;SDS011;2884;47.734;9.244;2024-02-14T08:47:33;3.20;;;2.90;;
5718;SDS011;2884;47.734;9.244;2024-02-14T08:49:59;4.13;;;3.03;;
5718;SDS011;2884;47.734;9.244;2024-02-14T08:52:25;5.43;;;3.40;;
5718;SDS011;2884;47.734;9.244;2024-02-14T08:54:51;3.37;;;2.60;;
5718;SDS011;2884;47.734;9.244;2024-02-14T08:57:16;3.90;;;2.40;;
5718;SDS011;2884;47.734;9.244;2024-02-14T08:59:43;9.80;;;2.93;;
5718;SDS011;2884;47.734;9.244;2024-02-14T09:02:12;4.40;;;2.40;;
5718;SDS011;2884;47.734;9.244;2024-02-14T09:04:38;2.67;;;2.43;;
5718;SDS011;2884;47.734;9.244;2024-02-14T09:07:06;6.47;;;2.57;;
5718;SDS011;2884;47.734;9.244;2024-02-14T09:09:32;4.30;;;2.27;;
5718;SDS011;2884;47.734;9.244;2024-02-14T09:11:58;4.23;;;2.40;;
5718;SDS011;2884;47.734;9.244;2024-02-14T09:14:28;7.30;;;2.40;;
5718;SDS011;2884;47.734;9.244;2024-02-14T09:16:54;3.53;;;2.20;;
5718;SDS011;2884;47.734;9.244;2024-02-14T09:19:19;3.73;;;2.77;;
5718;SDS011;2884;47.734;9.244;2024-02-14T09:21:45;2.57;;;2.37;;
5718;SDS011;2884;47.734;9.244;2024-02-14T09:24:10;3.70;;;2.37;;
5718;SDS011;2884;47.734;9.244;2024-02-14T09:26:36;2.63;;;2.30;;
5718;SDS011;2884;47.734;9.244;2024-02-14T09:29:03;3.40;;;2.70;;
5718;SDS011;2884;47.734;9.244;2024-02-14T09:31:29;3.83;;;2.57;;
5718;SDS011;2884;47.734;9.244;2024-02-14T09:33:54;3.57;;;2.60;;
5718;SDS011;2884;47.734;9.244;2024-02-14T09:36:22;8.20;;;2.43;;
5718;SDS011;2884;47.734;9.244;2024-02-14T09:38:49;3.30;;;2.40;;
5718;SDS011;2884;47.734;9.244;2024-02-14T09:41:15;6.67;;;2.73;;
5718;SDS011;2884;47.734;9.244;2024-02-14T09:43:46;5.73;;;2.87;;
5718;SDS011;2884;47.734;9.244;2024-02-14T09:46:12;3.10;;;2.37;;
5718;SDS011;2884;47.734;9.244;2024-02-14T09:48:43;5.73;;;2.50;;
5718;SDS011;2884;47.734;9.244;2024-02-14T09:51:10;11.17;;;2.80;;
5718;SDS011;2884;47.734;9.244;2024-02-14T09:53:37;4.50;;;3.03;;
5718;SDS011;2884;47.734;9.244;2024-02-14T09:56:05;4.43;;;3.00;;
5718;SDS011;2884;47.734;9.244;2024-02-14T09:58:32;3.20;;;2.40;;
5718;SDS011;2884;47.734;9.244;2024-02-14T10:00:57;3.47;;;2.67;;
5718;SDS011;2884;47.734;9.244;2024-02-14T10:03:23;5.43;;;2.90;;
5718;SDS011;2884;47.734;9.244;2024-02-14T10:05:49;5.00;;;2.40;;
5718;SDS011;2884;47.734;9.244;2024-02-14T10:08:15;3.87;;;2.67;;
5718;SDS011;2884;47.734;9.244;2024-02-14T10:10:41;4.87;;;3.00;;
5718;SDS011;2884;47.734;9.244;2024-02-14T10:13:06;11.80;;;2.83;;
5718;SDS011;2884;47.734;9.244;2024-02-14T10:15:32;5.30;;;2.30;;
5718;SDS011;2884;47.734;9.244;2024-02-14T10:17:58;3.50;;;2.50;;
5718;SDS011;2884;47.734;9.244;2024-02-14T10:20:28;7.37;;;2.60;;
5718;SDS011;2884;47.734;9.244;2024-02-14T10:23:01;5.50;;;2.30;;
5718;SDS011;2884;47.734;9.244;2024-02-14T10:25:28;5.53;;;2.10;;
5718;SDS011;2884;47.734;9.244;2024-02-14T10:27:54;4.10;;;2.50;;
5718;SDS011;2884;47.734;9.244;2024-02-14T10:30:20;2.77;;;2.50;;
5718;SDS011;2884;47.734;9.244;2024-02-14T10:32:47;2.97;;;2.17;;
5718;SDS011;2884;47.734;9.244;2024-02-14T10:35:13;5.50;;;2.00;;
5718;SDS011;2884;47.734;9.244;2024-02-14T10:37:40;4.23;;;2.10;;
5718;SDS011;2884;47.734;9.244;2024-02-14T10:40:06;5.00;;;2.47;;
5718;SDS011;2884;47.734;9.244;2024-02-14T10:42:34;3.60;;;1.97;;
5718;SDS011;2884;47.734;9.244;2024-02-14T10:45:00;5.20;;;2.63;;
5718;SDS011;2884;47.734;9.244;2024-02-14T10:47:34;3.70;;;2.13;;
5718;SDS011;2884;47.734;9.244;2024-02-14T10:50:02;2.00;;;1.77;;
5718;SDS011;2884;47.734;9.244;2024-02-14T10:52:30;5.27;;;1.80;;
5718;SDS011;2884;47.734;9.244;2024-02-14T10:54:58;7.10;;;2.43;;
5718;SDS011;2884;47.734;9.244;2024-02-14T10:57:24;5.63;;;2.03;;
5718;SDS011;2884;47.734;9.244;2024-02-14T10:59:50;2.17;;;1.47;;
5718;SDS011;2884;47.734;9.244;2024-02-14T11:02:17;3.77;;;2.30;;
5718;SDS011;2884;47.734;9.244;2024-02-14T11:04:43;4.47;;;2.00;;
5718;SDS011;2884;47.734;9.244;2024-02-14T11:07:10;3.20;;;2.17;;
5718;SDS011;2884;47.734;9.244;2024-02-14T11:09:36;6.00;;;2.10;;
5718;SDS011;2884;47.734;9.244;2024-02-14T11:12:02;5.80;;;1.90;;
5718;SDS011;2884;47.734;9.244;2024-02-14T11:14:32;5.10;;;2.80;;
5718;SDS011;2884;47.734;9.244;2024-02-14T11:17:09;2.90;;;2.07;;
5718;SDS011;2884;47.734;9.244;2024-02-14T11:19:35;1.70;;;1.60;;
5718;SDS011;2884;47.734;9.244;2024-02-14T11:22:17;4.20;;;1.70;;
5718;SDS011;2884;47.734;9.244;2024-02-14T11:24:47;4.47;;;1.97;;
5718;SDS011;2884;47.734;9.244;2024-02-14T11:27:13;2.43;;;1.60;;
5718;SDS011;2884;47.734;9.244;2024-02-14T11:29:39;2.43;;;2.10;;
5718;SDS011;2884;47.734;9.244;2024-02-14T11:32:08;1.90;;;1.73;;
5718;SDS011;2884;47.734;9.244;2024-02-14T11:34:34;2.40;;;1.60;;
5718;SDS011;2884;47.734;9.244;2024-02-14T11:37:00;4.03;;;2.00;;
5718;SDS011;2884;47.734;9.244;2024-02-14T11:39:26;2.57;;;1.87;;
5718;SDS011;2884;47.734;9.244;2024-02-14T11:41:51;2.83;;;1.70;;
5718;SDS011;2884;47.734;9.244;2024-02-14T11:44:18;2.07;;;1.90;;
5718;SDS011;2884;47.734;9.244;2024-02-14T11:46:45;2.50;;;2.07;;
5718;SDS011;2884;47.734;9.244;2024-02-14T11:49:11;2.80;;;1.90;;
5718;SDS011;2884;47.734;9.244;2024-02-14T11:51:37;3.10;;;1.90;;
5718;SDS011;2884;47.734;9.244;2024-02-14T11:54:04;3.33;;;2.03;;
5718;SDS011;2884;47.734;9.244;2024-02-14T11:56:31;3.00;;;2.00;;
5718;SDS011;2884;47.734;9.244;2024-02-14T11:59:04;4.00;;;1.80;;
5718;SDS011;2884;47.734;9.244;2024-02-14T12:01:33;1.73;;;1.63;;
5718;SDS011;2884;47.734;9.244;2024-02-14T12:04:00;3.07;;;1.80;;
5718;SDS011;2884;47.734;9.244;2024-02-14T12:06:27;1.93;;;1.63;;
5718;SDS011;2884;47.734;9.244;2024-02-14T12:08:54;4.33;;;1.90;;
5718;SDS011;2884;47.734;9.244;2024-02-14T12:11:19;2.77;;;1.90;;
5718;SDS011;2884;47.734;9.244;2024-02-14T12:13:49;2.60;;;2.00;;
5718;SDS011;2884;47.734;9.244;2024-02-14T12:16:15;6.17;;;1.73;;
5718;SDS011;2884;47.734;9.244;2024-02-14T12:18:41;4.97;;;1.80;;
5718;SDS011;2884;47.734;9.244;2024-02-14T12:21:06;5.23;;;2.43;;
5718;SDS011;2884;47.734;9.244;2024-02-14T12:23:35;3.37;;;2.10;;
5718;SDS011;2884;47.734;9.244;2024-02-14T12:26:04;3.47;;;2.20;;
5718;SDS011;2884;47.734;9.244;2024-02-14T12:28:30;4.50;;;2.17;;
5718;SDS011;2884;47.734;9.244;2024-02-14T12:30:56;2.57;;;2.00;;
5718;SDS011;2884;47.734;9.244;2024-02-14T12:33:23;3.10;;;1.73;;
5718;SDS011;2884;47.734;9.244;2024-02-14T12:35:50;6.87;;;2.90;;
5718;SDS011;2884;47.734;9.244;2024-02-14T12:38:17;5.87;;;2.17;;
5718;SDS011;2884;47.734;9.244;2024-02-14T12:40:44;4.07;;;2.57;;
5718;SDS011;2884;47.734;9.244;2024-02-14T12:43:10;2.90;;;1.80;;
5718;SDS011;2884;47.734;9.244;2024-02-14T12:45:40;12.63;;;2.40;;
5718;SDS011;2884;47.734;9.244;2024-02-14T12:48:09;3.07;;;1.70;;
5718;SDS011;2884;47.734;9.244;2024-02-14T12:50:37;3.90;;;1.67;;
5718;SDS011;2884;47.734;9.244;2024-02-14T12:53:03;13.50;;;2.40;;
5718;SDS011;2884;47.734;9.244;2024-02-14T12:55:29;2.23;;;2.03;;
5718;SDS011;2884;47.734;9.244;2024-02-14T12:57:55;3.70;;;2.00;;
5718;SDS011;2884;47.734;9.244;2024-02-14T13:00:22;4.30;;;1.70;;
5718;SDS011;2884;47.734;9.244;2024-02-14T13:02:48;3.20;;;2.10;;
5718;SDS011;2884;47.734;9.244;2024-02-14T13:05:14;4.10;;;2.00;;
5718;SDS011;2884;47.734;9.244;2024-02-14T13:07:40;4.30;;;1.83;;
5718;SDS011;2884;47.734;9.244;2024-02-14T13:10:09;6.73;;;1.50;;
5718;SDS011;2884;47.734;9.244;2024-02-14T13:12:36;6.70;;;2.10;;
5718;SDS011;2884;47.734;9.244;2024-02-14T13:15:02;2.93;;;2.33;;
5718;SDS011;2884;47.734;9.244;2024-02-14T13:17:28;4.27;;;1.60;;
5718;SDS011;2884;47.734;9.244;2024-02-14T13:19:54;1.93;;;1.73;;
5718;SDS011;2884;47.734;9.244;2024-02-14T13:22:20;2.23;;;1.50;;
5718;SDS011;2884;47.734;9.244;2024-02-14T13:24:45;1.67;;;1.47;;
5718;SDS011;2884;47.734;9.244;2024-02-14T13:27:11;2.43;;;1.50;;
5718;SDS011;2884;47.734;9.244;2024-02-14T13:29:36;3.43;;;1.70;;
5718;SDS011;2884;47.734;9.244;2024-02-14T13:32:03;5.83;;;1.60;;
5718;SDS011;2884;47.734;9.244;2024-02-14T13:34:30;1.83;;;1.53;;
5718;SDS011;2884;47.734;9.244;2024-02-14T13:36:56;1.43;;;1.27;;
5718;SDS011;2884;47.734;9.244;2024-02-14T13:39:23;2.00;;;1.90;;
5718;SDS011;2884;47.734;9.244;2024-02-14T13:41:48;1.97;;;1.60;;
5718;SDS011;2884;47.734;9.244;2024-02-14T13:44:14;2.23;;;1.40;;
5718;SDS011;2884;47.734;9.244;2024-02-14T13:46:43;5.90;;;1.10;;
5718;SDS011;2884;47.734;9.244;2024-02-14T13:49:15;3.03;;;1.73;;
5718;SDS011;2884;47.734;9.244;2024-02-14T13:51:47;1.90;;;1.00;;
5718;SDS011;2884;47.734;9.244;2024-02-14T13:54:13;8.43;;;1.23;;
5718;SDS011;2884;47.734;9.244;2024-02-14T13:56:38;1.37;;;1.27;;
5718;SDS011;2884;47.734;9.244;2024-02-14T13:59:04;2.40;;;1.07;;
5718;SDS011;2884;47.734;9.244;2024-02-14T14:01:29;2.90;;;1.20;;
5718;SDS011;2884;47.734;9.244;2024-02-14T14:03:55;1.40;;;1.13;;
5718;SDS011;2884;47.734;9.244;2024-02-14T14:06:23;1.03;;;0.90;;
5718;SDS011;2884;47.734;9.244;2024-02-14T14:08:49;2.00;;;1.53;;
5718;SDS011;2884;47.734;9.244;2024-02-14T14:11:16;2.90;;;1.53;;
5718;SDS011;2884;47.734;9.244;2024-02-14T14:13:42;1.20;;;1.10;;
5718;SDS011;2884;47.734;9.244;2024-02-14T14:16:07;1.33;;;1.13;;
5718;SDS011;2884;47.734;9.244;2024-02-14T14:18:34;4.00;;;1.50;;
5718;SDS011;2884;47.734;9.244;2024-02-14T14:21:00;2.50;;;1.77;;
5718;SDS011;2884;47.734;9.244;2024-02-14T14:23:25;1.73;;;1.30;;
5718;SDS011;2884;47.734;9.244;2024-02-14T14:25:51;4.27;;;1.20;;
5718;SDS011;2884;47.734;9.244;2024-02-14T14:28:16;3.53;;;1.20;;
5718;SDS011;2884;47.734;9.244;2024-02-14T14:30:44;4.97;;;1.43;;
5718;SDS011;2884;47.734;9.244;2024-02-14T14:33:10;2.07;;;1.00;;
5718;SDS011;2884;47.734;9.244;2024-02-14T14:35:36;1.73;;;1.10;;
5718;SDS011;2884;47.734;9.244;2024-02-14T14:38:05;3.70;;;1.40;;
5718;SDS011;2884;47.734;9.244;2024-02-14T14:40:31;4.83;;;1.27;;
5718;SDS011;2884;47.734;9.244;2024-02-14T14:42:57;3.83;;;1.43;;
5718;SDS011;2884;47.734;9.244;2024-02-14T14:45:22;6.07;;;1.77;;
5718;SDS011;2884;47.734;9.244;2024-02-14T14:47:48;7.20;;;2.40;;
5718;SDS011;2884;47.734;9.244;2024-02-14T14:50:17;1.13;;;0.93;;
5718;SDS011;2884;47.734;9.244;2024-02-14T14:52:44;2.03;;;1.10;;
5718;SDS011;2884;47.734;9.244;2024-02-14T14:55:10;1.17;;;1.03;;
5718;SDS011;2884;47.734;9.244;2024-02-14T14:57:36;4.50;;;1.10;;
5718;SDS011;2884;47.734;9.244;2024-02-14T15:00:14;1.77;;;1.20;;
5718;SDS011;2884;47.734;9.244;2024-02-14T15:02:40;1.20;;;1.00;;
5718;SDS011;2884;47.734;9.244;2024-02-14T15:05:10;1.27;;;1.17;;
5718;SDS011;2884;47.734;9.244;2024-02-14T15:07:38;2.60;;;1.73;;
5718;SDS011;2884;47.734;9.244;2024-02-14T15:10:05;1.97;;;1.60;;